sensor_id;sensor_type;location;lat;lon;timestamp;temperature;humidity
71142;DHT22;58808;59.366;17.970;2023-07-29T00:01:33;14.10;99.90
71142;DHT22;58808;59.366;17.970;2023-07-29T00:03:59;14.10;99.90
71142;DHT22;58808;59.366;17.970;2023-07-29T00:06:25;14.10;99.90
71142;DHT22;58808;59.366;17.970;2023-07-29T00:08:50;14.10;99.90
71142;DHT22;58808;59.366;17.970;2023-07-29T00:11:16;14.10;99.90
71142;DHT22;58808;59.366;17.970;2023-07-29T00:13:42;14.10;99.90
71142;DHT22;58808;59.366;17.970;2023-07-29T00:16:07;14.10;99.90
71142;DHT22;58808;59.366;17.970;2023-07-29T00:18:33;14.10;99.90
71142;DHT22;58808;59.366;17.970;2023-07-29T00:20:59;14.00;99.90
71142;DHT22;58808;59.366;17.970;2023-07-29T00:23:25;14.10;99.90
71142;DHT22;58808;59.366;17.970;2023-07-29T00:25:50;14.00;99.90
71142;DHT22;58808;59.366;17.970;2023-07-29T00:28:16;14.00;99.90
71142;DHT22;58808;59.366;17.970;2023-07-29T00:30:42;14.00;99.90
71142;DHT22;58808;59.366;17.970;2023-07-29T00:33:07;14.00;99.90
71142;DHT22;58808;59.366;17.970;2023-07-29T00:35:34;14.00;99.90
71142;DHT22;58808;59.366;17.970;2023-07-29T00:38:00;14.00;99.90
71142;DHT22;58808;59.366;17.970;2023-07-29T00:40:28;14.00;99.90
71142;DHT22;58808;59.366;17.970;2023-07-29T00:42:55;13.90;99.90
71142;DHT22;58808;59.366;17.970;2023-07-29T00:45:21;13.90;99.90
71142;DHT22;58808;59.366;17.970;2023-07-29T00:47:48;13.90;99.90
71142;DHT22;58808;59.366;17.970;2023-07-29T00:50:15;13.90;99.90
71142;DHT22;58808;59.366;17.970;2023-07-29T00:52:41;13.90;99.90
71142;DHT22;58808;59.366;17.970;2023-07-29T00:55:07;13.90;99.90
71142;DHT22;58808;59.366;17.970;2023-07-29T00:57:33;13.90;99.90
71142;DHT22;58808;59.366;17.970;2023-07-29T01:00:00;13.90;99.90
71142;DHT22;58808;59.366;17.970;2023-07-29T01:02:27;13.90;99.90
71142;DHT22;58808;59.366;17.970;2023-07-29T01:04:54;13.90;99.90
71142;DHT22;58808;59.366;17.970;2023-07-29T01:07:36;13.90;99.90
71142;DHT22;58808;59.366;17.970;2023-07-29T01:12:56;13.90;99.90
71142;DHT22;58808;59.366;17.970;2023-07-29T01:16:07;13.90;99.90
71142;DHT22;58808;59.366;17.970;2023-07-29T01:18:32;13.90;99.90
71142;DHT22;58808;59.366;17.970;2023-07-29T01:21:04;13.80;99.90
71142;DHT22;58808;59.366;17.970;2023-07-29T01:23:34;13.80;99.90
71142;DHT22;58808;59.366;17.970;2023-07-29T01:26:01;13.80;99.90
71142;DHT22;58808;59.366;17.970;2023-07-29T01:28:28;13.90;99.90
71142;DHT22;58808;59.366;17.970;2023-07-29T01:31:06;13.80;99.90
71142;DHT22;58808;59.366;17.970;2023-07-29T01:33:42;13.90;99.90
71142;DHT22;58808;59.366;17.970;2023-07-29T01:36:17;13.80;99.90
71142;DHT22;58808;59.366;17.970;2023-07-29T01:38:44;13.80;99.90
71142;DHT22;58808;59.366;17.970;2023-07-29T01:41:10;13.80;99.90
71142;DHT22;58808;59.366;17.970;2023-07-29T01:43:37;13.90;99.90
71142;DHT22;58808;59.366;17.970;2023-07-29T01:46:12;13.90;99.90
71142;DHT22;58808;59.366;17.970;2023-07-29T01:48:38;13.80;99.90
71142;DHT22;58808;59.366;17.970;2023-07-29T01:51:05;13.80;99.90
71142;DHT22;58808;59.366;17.970;2023-07-29T01:53:31;13.80;99.90
71142;DHT22;58808;59.366;17.970;2023-07-29T01:55:57;13.80;99.90
71142;DHT22;58808;59.366;17.970;2023-07-29T01:58:23;13.80;99.90
71142;DHT22;58808;59.366;17.970;2023-07-29T02:00:49;13.80;99.90
71142;DHT22;58808;59.366;17.970;2023-07-29T02:03:15;13.80;99.90
71142;DHT22;58808;59.366;17.970;2023-07-29T02:05:41;13.80;99.90
71142;DHT22;58808;59.366;17.970;2023-07-29T02:08:10;13.80;99.90
71142;DHT22;58808;59.366;17.970;2023-07-29T02:10:36;13.80;99.90
71142;DHT22;58808;59.366;17.970;2023-07-29T02:13:02;13.80;99.90
71142;DHT22;58808;59.366;17.970;2023-07-29T02:15:28;13.80;99.90
71142;DHT22;58808;59.366;17.970;2023-07-29T02:17:54;13.80;99.90
71142;DHT22;58808;59.366;17.970;2023-07-29T02:20:20;13.80;99.90
71142;DHT22;58808;59.366;17.970;2023-07-29T02:22:46;13.80;99.90
71142;DHT22;58808;59.366;17.970;2023-07-29T02:25:12;13.80;99.90
71142;DHT22;58808;59.366;17.970;2023-07-29T02:27:38;13.80;99.90
71142;DHT22;58808;59.366;17.970;2023-07-29T02:30:04;13.80;99.90
71142;DHT22;58808;59.366;17.970;2023-07-29T02:32:30;13.70;99.90
71142;DHT22;58808;59.366;17.970;2023-07-29T02:34:56;13.70;99.90
71142;DHT22;58808;59.366;17.970;2023-07-29T02:37:22;13.70;99.90
71142;DHT22;58808;59.366;17.970;2023-07-29T02:39:47;13.80;99.90
71142;DHT22;58808;59.366;17.970;2023-07-29T02:42:13;13.70;99.90
71142;DHT22;58808;59.366;17.970;2023-07-29T02:44:40;13.70;99.90
71142;DHT22;58808;59.366;17.970;2023-07-29T02:47:05;13.70;99.90
71142;DHT22;58808;59.366;17.970;2023-07-29T02:49:31;13.80;99.90
71142;DHT22;58808;59.366;17.970;2023-07-29T02:51:57;13.80;99.90
71142;DHT22;58808;59.366;17.970;2023-07-29T02:54:22;13.70;99.90
71142;DHT22;58808;59.366;17.970;2023-07-29T02:56:50;13.80;99.90
71142;DHT22;58808;59.366;17.970;2023-07-29T02:59:15;13.80;99.90
71142;DHT22;58808;59.366;17.970;2023-07-29T03:01:41;13.80;99.90
71142;DHT22;58808;59.366;17.970;2023-07-29T03:04:07;13.80;99.90
71142;DHT22;58808;59.366;17.970;2023-07-29T03:06:33;13.80;99.90
71142;DHT22;58808;59.366;17.970;2023-07-29T03:08:59;13.80;99.90
71142;DHT22;58808;59.366;17.970;2023-07-29T03:11:24;13.80;99.90
71142;DHT22;58808;59.366;17.970;2023-07-29T03:13:50;13.80;99.90
71142;DHT22;58808;59.366;17.970;2023-07-29T03:16:17;13.80;99.90
71142;DHT22;58808;59.366;17.970;2023-07-29T03:18:43;13.80;99.90
71142;DHT22;58808;59.366;17.970;2023-07-29T03:21:09;13.80;99.90
71142;DHT22;58808;59.366;17.970;2023-07-29T03:23:36;13.80;99.90
71142;DHT22;58808;59.366;17.970;2023-07-29T03:26:03;13.80;99.90
71142;DHT22;58808;59.366;17.970;2023-07-29T03:28:39;13.80;99.90
71142;DHT22;58808;59.366;17.970;2023-07-29T03:31:05;13.90;99.90
71142;DHT22;58808;59.366;17.970;2023-07-29T03:33:30;13.80;99.90
71142;DHT22;58808;59.366;17.970;2023-07-29T03:35:56;13.90;99.90
71142;DHT22;58808;59.366;17.970;2023-07-29T03:38:22;13.90;99.90
71142;DHT22;58808;59.366;17.970;2023-07-29T03:40:48;13.90;99.90
71142;DHT22;58808;59.366;17.970;2023-07-29T03:43:14;13.90;99.90
71142;DHT22;58808;59.366;17.970;2023-07-29T03:45:40;13.90;99.90
71142;DHT22;58808;59.366;17.970;2023-07-29T03:48:06;14.00;99.90
71142;DHT22;58808;59.366;17.970;2023-07-29T03:50:34;14.00;99.90
71142;DHT22;58808;59.366;17.970;2023-07-29T03:53:01;14.00;99.90
71142;DHT22;58808;59.366;17.970;2023-07-29T03:55:26;14.00;99.90
71142;DHT22;58808;59.366;17.970;2023-07-29T03:57:52;14.00;99.90
71142;DHT22;58808;59.366;17.970;2023-07-29T04:00:18;14.10;99.90
71142;DHT22;58808;59.366;17.970;2023-07-29T04:02:44;14.10;99.90
71142;DHT22;58808;59.366;17.970;2023-07-29T04:05:11;14.10;99.90
71142;DHT22;58808;59.366;17.970;2023-07-29T04:07:37;14.10;99.90
71142;DHT22;58808;59.366;17.970;2023-07-29T04:10:03;14.10;99.90
71142;DHT22;58808;59.366;17.970;2023-07-29T04:12:30;14.20;99.90
71142;DHT22;58808;59.366;17.970;2023-07-29T04:14:56;14.20;99.90
71142;DHT22;58808;59.366;17.970;2023-07-29T04:17:21;14.20;99.90
71142;DHT22;58808;59.366;17.970;2023-07-29T04:19:47;14.20;99.90
71142;DHT22;58808;59.366;17.970;2023-07-29T04:22:15;14.30;99.90
71142;DHT22;58808;59.366;17.970;2023-07-29T04:24:41;14.30;99.90
71142;DHT22;58808;59.366;17.970;2023-07-29T04:27:07;14.30;99.90
71142;DHT22;58808;59.366;17.970;2023-07-29T04:29:32;14.40;99.90
71142;DHT22;58808;59.366;17.970;2023-07-29T04:31:58;14.40;99.90
71142;DHT22;58808;59.366;17.970;2023-07-29T04:34:24;14.50;99.90
71142;DHT22;58808;59.366;17.970;2023-07-29T04:36:50;14.50;99.90
71142;DHT22;58808;59.366;17.970;2023-07-29T04:39:16;14.50;99.90
71142;DHT22;58808;59.366;17.970;2023-07-29T04:41:42;14.60;99.90
71142;DHT22;58808;59.366;17.970;2023-07-29T04:44:07;14.60;99.90
71142;DHT22;58808;59.366;17.970;2023-07-29T04:46:33;14.60;99.90
71142;DHT22;58808;59.366;17.970;2023-07-29T04:48:59;14.70;99.90
71142;DHT22;58808;59.366;17.970;2023-07-29T04:51:25;14.70;99.90
71142;DHT22;58808;59.366;17.970;2023-07-29T04:53:51;14.70;99.90
71142;DHT22;58808;59.366;17.970;2023-07-29T04:56:16;14.70;99.90
71142;DHT22;58808;59.366;17.970;2023-07-29T04:58:42;14.80;99.90
71142;DHT22;58808;59.366;17.970;2023-07-29T05:01:08;14.80;99.90
71142;DHT22;58808;59.366;17.970;2023-07-29T05:03:33;14.90;99.90
71142;DHT22;58808;59.366;17.970;2023-07-29T05:05:59;14.90;99.90
71142;DHT22;58808;59.366;17.970;2023-07-29T05:08:28;15.00;99.90
71142;DHT22;58808;59.366;17.970;2023-07-29T05:10:54;15.00;99.90
71142;DHT22;58808;59.366;17.970;2023-07-29T05:13:21;15.00;99.90
71142;DHT22;58808;59.366;17.970;2023-07-29T05:15:48;15.10;99.90
71142;DHT22;58808;59.366;17.970;2023-07-29T05:18:14;15.10;99.90
71142;DHT22;58808;59.366;17.970;2023-07-29T05:20:40;15.20;99.90
71142;DHT22;58808;59.366;17.970;2023-07-29T05:23:06;15.20;99.90
71142;DHT22;58808;59.366;17.970;2023-07-29T05:25:32;15.20;99.90
71142;DHT22;58808;59.366;17.970;2023-07-29T05:28:00;15.30;99.90
71142;DHT22;58808;59.366;17.970;2023-07-29T05:30:26;15.30;99.90
71142;DHT22;58808;59.366;17.970;2023-07-29T05:32:56;15.30;99.90
71142;DHT22;58808;59.366;17.970;2023-07-29T05:35:22;15.30;99.90
71142;DHT22;58808;59.366;17.970;2023-07-29T05:37:48;15.40;99.90
71142;DHT22;58808;59.366;17.970;2023-07-29T05:40:14;15.40;99.90
71142;DHT22;58808;59.366;17.970;2023-07-29T05:42:39;15.50;99.90
71142;DHT22;58808;59.366;17.970;2023-07-29T05:45:06;15.40;99.90
71142;DHT22;58808;59.366;17.970;2023-07-29T05:47:32;15.50;99.90
71142;DHT22;58808;59.366;17.970;2023-07-29T05:49:57;15.60;99.90
71142;DHT22;58808;59.366;17.970;2023-07-29T05:52:23;15.60;99.90
71142;DHT22;58808;59.366;17.970;2023-07-29T05:54:49;15.60;99.90
71142;DHT22;58808;59.366;17.970;2023-07-29T05:57:14;15.70;99.90
71142;DHT22;58808;59.366;17.970;2023-07-29T05:59:40;15.70;99.90
71142;DHT22;58808;59.366;17.970;2023-07-29T06:02:06;15.70;99.90
71142;DHT22;58808;59.366;17.970;2023-07-29T06:04:31;15.70;99.90
71142;DHT22;58808;59.366;17.970;2023-07-29T06:06:57;15.80;99.90
71142;DHT22;58808;59.366;17.970;2023-07-29T06:09:23;15.80;99.90
71142;DHT22;58808;59.366;17.970;2023-07-29T06:11:50;15.90;99.90
71142;DHT22;58808;59.366;17.970;2023-07-29T06:14:16;15.90;99.90
71142;DHT22;58808;59.366;17.970;2023-07-29T06:16:42;16.00;99.90
71142;DHT22;58808;59.366;17.970;2023-07-29T06:19:08;16.00;99.90
71142;DHT22;58808;59.366;17.970;2023-07-29T06:21:35;16.10;99.90
71142;DHT22;58808;59.366;17.970;2023-07-29T06:24:01;16.10;99.90
71142;DHT22;58808;59.366;17.970;2023-07-29T06:26:27;16.10;99.90
71142;DHT22;58808;59.366;17.970;2023-07-29T06:28:53;16.20;99.90
71142;DHT22;58808;59.366;17.970;2023-07-29T06:31:19;16.20;99.90
71142;DHT22;58808;59.366;17.970;2023-07-29T06:33:45;16.30;99.90
71142;DHT22;58808;59.366;17.970;2023-07-29T06:36:11;16.30;99.90
71142;DHT22;58808;59.366;17.970;2023-07-29T06:38:37;16.30;99.90
71142;DHT22;58808;59.366;17.970;2023-07-29T06:41:04;16.40;99.90
71142;DHT22;58808;59.366;17.970;2023-07-29T06:43:30;16.40;99.90
71142;DHT22;58808;59.366;17.970;2023-07-29T06:45:56;16.40;99.90
71142;DHT22;58808;59.366;17.970;2023-07-29T06:48:21;16.50;99.90
71142;DHT22;58808;59.366;17.970;2023-07-29T06:50:47;16.50;99.90
71142;DHT22;58808;59.366;17.970;2023-07-29T06:53:13;16.50;99.90
71142;DHT22;58808;59.366;17.970;2023-07-29T06:55:39;16.60;99.90
71142;DHT22;58808;59.366;17.970;2023-07-29T06:58:05;16.60;99.90
71142;DHT22;58808;59.366;17.970;2023-07-29T07:00:31;16.70;99.90
71142;DHT22;58808;59.366;17.970;2023-07-29T07:02:56;16.80;99.90
71142;DHT22;58808;59.366;17.970;2023-07-29T07:05:22;16.90;99.90
71142;DHT22;58808;59.366;17.970;2023-07-29T07:07:48;17.10;99.90
71142;DHT22;58808;59.366;17.970;2023-07-29T07:10:14;17.20;99.90
71142;DHT22;58808;59.366;17.970;2023-07-29T07:12:39;17.30;99.90
71142;DHT22;58808;59.366;17.970;2023-07-29T07:15:06;17.40;99.90
71142;DHT22;58808;59.366;17.970;2023-07-29T07:17:32;17.50;99.90
71142;DHT22;58808;59.366;17.970;2023-07-29T07:19:57;17.60;99.90
71142;DHT22;58808;59.366;17.970;2023-07-29T07:22:23;17.70;99.90
71142;DHT22;58808;59.366;17.970;2023-07-29T07:24:49;17.80;99.90
71142;DHT22;58808;59.366;17.970;2023-07-29T07:27:15;17.90;99.90
71142;DHT22;58808;59.366;17.970;2023-07-29T07:29:40;18.00;99.90
71142;DHT22;58808;59.366;17.970;2023-07-29T07:32:06;18.10;99.90
71142;DHT22;58808;59.366;17.970;2023-07-29T07:34:32;18.20;99.90
71142;DHT22;58808;59.366;17.970;2023-07-29T07:36:59;18.30;99.90
71142;DHT22;58808;59.366;17.970;2023-07-29T07:39:25;18.40;99.90
71142;DHT22;58808;59.366;17.970;2023-07-29T07:41:51;18.60;99.90
71142;DHT22;58808;59.366;17.970;2023-07-29T07:44:17;18.70;99.90
71142;DHT22;58808;59.366;17.970;2023-07-29T07:46:45;18.90;99.90
71142;DHT22;58808;59.366;17.970;2023-07-29T07:49:11;19.00;99.90
71142;DHT22;58808;59.366;17.970;2023-07-29T07:51:38;19.00;99.90
71142;DHT22;58808;59.366;17.970;2023-07-29T07:54:04;19.10;99.90
71142;DHT22;58808;59.366;17.970;2023-07-29T07:56:30;19.20;99.90
71142;DHT22;58808;59.366;17.970;2023-07-29T07:58:56;19.30;99.90
71142;DHT22;58808;59.366;17.970;2023-07-29T08:01:21;19.40;99.90
71142;DHT22;58808;59.366;17.970;2023-07-29T08:03:47;19.40;99.90
71142;DHT22;58808;59.366;17.970;2023-07-29T08:06:13;19.50;99.90
71142;DHT22;58808;59.366;17.970;2023-07-29T08:08:39;19.60;99.90
71142;DHT22;58808;59.366;17.970;2023-07-29T08:11:04;19.70;99.90
71142;DHT22;58808;59.366;17.970;2023-07-29T08:13:30;19.70;99.90
71142;DHT22;58808;59.366;17.970;2023-07-29T08:15:56;19.70;99.90
71142;DHT22;58808;59.366;17.970;2023-07-29T08:18:22;19.70;99.90
71142;DHT22;58808;59.366;17.970;2023-07-29T08:20:59;19.60;99.90
71142;DHT22;58808;59.366;17.970;2023-07-29T08:23:28;19.60;99.90
71142;DHT22;58808;59.366;17.970;2023-07-29T08:25:56;19.70;99.90
71142;DHT22;58808;59.366;17.970;2023-07-29T08:28:30;19.90;99.90
71142;DHT22;58808;59.366;17.970;2023-07-29T08:30:56;20.00;99.90
71142;DHT22;58808;59.366;17.970;2023-07-29T08:33:24;20.20;99.90
71142;DHT22;58808;59.366;17.970;2023-07-29T08:35:49;20.20;99.90
71142;DHT22;58808;59.366;17.970;2023-07-29T08:38:15;20.20;99.90
71142;DHT22;58808;59.366;17.970;2023-07-29T08:41:06;20.20;99.90
71142;DHT22;58808;59.366;17.970;2023-07-29T08:43:38;20.20;99.90
71142;DHT22;58808;59.366;17.970;2023-07-29T08:46:04;20.20;99.90
71142;DHT22;58808;59.366;17.970;2023-07-29T08:48:41;20.20;99.90
71142;DHT22;58808;59.366;17.970;2023-07-29T08:51:11;20.30;99.90
71142;DHT22;58808;59.366;17.970;2023-07-29T08:53:38;20.40;99.90
71142;DHT22;58808;59.366;17.970;2023-07-29T08:56:05;20.40;99.90
71142;DHT22;58808;59.366;17.970;2023-07-29T08:58:31;20.50;99.90
71142;DHT22;58808;59.366;17.970;2023-07-29T09:00:57;20.70;99.90
71142;DHT22;58808;59.366;17.970;2023-07-29T09:03:23;20.80;99.90
71142;DHT22;58808;59.366;17.970;2023-07-29T09:05:50;21.00;99.90
71142;DHT22;58808;59.366;17.970;2023-07-29T09:08:16;21.00;99.90
71142;DHT22;58808;59.366;17.970;2023-07-29T09:10:42;21.10;99.90
71142;DHT22;58808;59.366;17.970;2023-07-29T09:13:07;21.30;99.90
71142;DHT22;58808;59.366;17.970;2023-07-29T09:15:35;21.30;99.90
71142;DHT22;58808;59.366;17.970;2023-07-29T09:18:19;21.50;99.90
71142;DHT22;58808;59.366;17.970;2023-07-29T09:20:49;21.50;99.30
71142;DHT22;58808;59.366;17.970;2023-07-29T09:23:15;21.50;98.70
71142;DHT22;58808;59.366;17.970;2023-07-29T09:25:41;21.60;97.60
71142;DHT22;58808;59.366;17.970;2023-07-29T09:28:12;21.70;97.20
71142;DHT22;58808;59.366;17.970;2023-07-29T09:30:45;21.80;96.70
71142;DHT22;58808;59.366;17.970;2023-07-29T09:33:11;21.90;96.00
71142;DHT22;58808;59.366;17.970;2023-07-29T09:35:37;22.00;93.80
71142;DHT22;58808;59.366;17.970;2023-07-29T09:38:06;22.00;94.50
71142;DHT22;58808;59.366;17.970;2023-07-29T09:40:37;21.90;94.70
71142;DHT22;58808;59.366;17.970;2023-07-29T09:43:03;22.00;94.90
71142;DHT22;58808;59.366;17.970;2023-07-29T09:45:29;22.20;94.60
71142;DHT22;58808;59.366;17.970;2023-07-29T09:47:57;22.40;92.10
71142;DHT22;58808;59.366;17.970;2023-07-29T09:50:24;22.40;90.50
71142;DHT22;58808;59.366;17.970;2023-07-29T09:52:51;22.30;89.40
71142;DHT22;58808;59.366;17.970;2023-07-29T09:55:22;22.30;89.70
71142;DHT22;58808;59.366;17.970;2023-07-29T09:57:56;22.40;88.70
71142;DHT22;58808;59.366;17.970;2023-07-29T10:00:23;22.50;90.20
71142;DHT22;58808;59.366;17.970;2023-07-29T10:02:49;22.70;89.60
71142;DHT22;58808;59.366;17.970;2023-07-29T10:05:15;23.00;90.10
71142;DHT22;58808;59.366;17.970;2023-07-29T10:07:41;23.10;87.20
71142;DHT22;58808;59.366;17.970;2023-07-29T10:10:08;23.00;84.90
71142;DHT22;58808;59.366;17.970;2023-07-29T10:12:35;22.90;85.10
71142;DHT22;58808;59.366;17.970;2023-07-29T10:15:05;22.80;85.50
71142;DHT22;58808;59.366;17.970;2023-07-29T10:17:34;22.90;85.60
71142;DHT22;58808;59.366;17.970;2023-07-29T10:20:03;22.90;83.40
71142;DHT22;58808;59.366;17.970;2023-07-29T10:22:35;22.80;84.50
71142;DHT22;58808;59.366;17.970;2023-07-29T10:25:04;23.00;84.50
71142;DHT22;58808;59.366;17.970;2023-07-29T10:27:41;23.00;83.60
71142;DHT22;58808;59.366;17.970;2023-07-29T10:30:10;22.90;83.90
71142;DHT22;58808;59.366;17.970;2023-07-29T10:32:37;22.90;85.00
71142;DHT22;58808;59.366;17.970;2023-07-29T10:35:04;22.90;86.50
71142;DHT22;58808;59.366;17.970;2023-07-29T10:37:30;22.90;86.30
71142;DHT22;58808;59.366;17.970;2023-07-29T10:39:56;22.80;86.00
71142;DHT22;58808;59.366;17.970;2023-07-29T10:42:22;22.90;88.00
71142;DHT22;58808;59.366;17.970;2023-07-29T10:44:49;23.00;86.20
71142;DHT22;58808;59.366;17.970;2023-07-29T10:47:17;23.10;82.00
71142;DHT22;58808;59.366;17.970;2023-07-29T10:49:44;23.00;82.60
71142;DHT22;58808;59.366;17.970;2023-07-29T10:52:28;23.10;80.80
71142;DHT22;58808;59.366;17.970;2023-07-29T10:54:54;23.20;81.40
71142;DHT22;58808;59.366;17.970;2023-07-29T10:57:38;23.10;82.80
71142;DHT22;58808;59.366;17.970;2023-07-29T11:00:07;23.10;83.10
71142;DHT22;58808;59.366;17.970;2023-07-29T11:02:37;23.30;78.80
71142;DHT22;58808;59.366;17.970;2023-07-29T11:05:18;23.20;77.10
71142;DHT22;58808;59.366;17.970;2023-07-29T11:07:48;23.30;75.70
71142;DHT22;58808;59.366;17.970;2023-07-29T11:10:14;23.40;75.40
71142;DHT22;58808;59.366;17.970;2023-07-29T11:20:10;23.50;73.80
71142;DHT22;58808;59.366;17.970;2023-07-29T11:22:37;23.50;73.40
71142;DHT22;58808;59.366;17.970;2023-07-29T11:25:05;23.50;74.60
71142;DHT22;58808;59.366;17.970;2023-07-29T11:27:31;23.70;74.40
71142;DHT22;58808;59.366;17.970;2023-07-29T11:29:58;24.00;71.60
71142;DHT22;58808;59.366;17.970;2023-07-29T11:32:24;24.30;70.80
71142;DHT22;58808;59.366;17.970;2023-07-29T11:34:50;24.60;68.70
71142;DHT22;58808;59.366;17.970;2023-07-29T11:37:17;24.60;67.70
71142;DHT22;58808;59.366;17.970;2023-07-29T11:39:43;24.60;62.80
71142;DHT22;58808;59.366;17.970;2023-07-29T11:42:14;24.60;59.90
71142;DHT22;58808;59.366;17.970;2023-07-29T11:44:40;24.40;56.80
71142;DHT22;58808;59.366;17.970;2023-07-29T11:47:12;24.30;58.30
71142;DHT22;58808;59.366;17.970;2023-07-29T11:49:40;24.10;60.00
71142;DHT22;58808;59.366;17.970;2023-07-29T11:52:07;24.20;59.60
71142;DHT22;58808;59.366;17.970;2023-07-29T11:54:35;24.10;59.60
71142;DHT22;58808;59.366;17.970;2023-07-29T11:57:01;23.90;60.10
71142;DHT22;58808;59.366;17.970;2023-07-29T11:59:27;23.80;59.20
71142;DHT22;58808;59.366;17.970;2023-07-29T12:01:54;23.80;60.00
71142;DHT22;58808;59.366;17.970;2023-07-29T12:04:20;23.90;59.90
71142;DHT22;58808;59.366;17.970;2023-07-29T12:06:46;24.00;58.70
71142;DHT22;58808;59.366;17.970;2023-07-29T12:09:12;24.10;59.20
71142;DHT22;58808;59.366;17.970;2023-07-29T12:11:39;24.20;58.20
71142;DHT22;58808;59.366;17.970;2023-07-29T12:14:07;24.20;57.00
71142;DHT22;58808;59.366;17.970;2023-07-29T12:16:43;24.40;55.80
71142;DHT22;58808;59.366;17.970;2023-07-29T12:19:12;24.50;56.10
71142;DHT22;58808;59.366;17.970;2023-07-29T12:21:40;24.50;54.40
71142;DHT22;58808;59.366;17.970;2023-07-29T12:24:05;24.60;55.20
71142;DHT22;58808;59.366;17.970;2023-07-29T12:26:31;24.60;55.30
71142;DHT22;58808;59.366;17.970;2023-07-29T12:28:57;24.60;55.60
71142;DHT22;58808;59.366;17.970;2023-07-29T12:31:31;24.70;54.60
71142;DHT22;58808;59.366;17.970;2023-07-29T12:33:57;24.70;53.70
71142;DHT22;58808;59.366;17.970;2023-07-29T12:36:40;24.60;53.00
71142;DHT22;58808;59.366;17.970;2023-07-29T12:39:05;24.60;54.00
71142;DHT22;58808;59.366;17.970;2023-07-29T12:41:31;24.60;54.10
71142;DHT22;58808;59.366;17.970;2023-07-29T12:43:57;24.70;52.90
71142;DHT22;58808;59.366;17.970;2023-07-29T12:46:29;24.50;54.20
71142;DHT22;58808;59.366;17.970;2023-07-29T12:48:55;24.40;55.00
71142;DHT22;58808;59.366;17.970;2023-07-29T12:51:20;24.40;56.00
71142;DHT22;58808;59.366;17.970;2023-07-29T12:53:46;24.60;54.40
71142;DHT22;58808;59.366;17.970;2023-07-29T12:56:12;24.70;54.20
71142;DHT22;58808;59.366;17.970;2023-07-29T12:58:37;25.00;53.80
71142;DHT22;58808;59.366;17.970;2023-07-29T13:01:03;25.10;53.60
71142;DHT22;58808;59.366;17.970;2023-07-29T13:03:29;25.30;52.10
71142;DHT22;58808;59.366;17.970;2023-07-29T13:05:55;25.40;49.00
71142;DHT22;58808;59.366;17.970;2023-07-29T13:08:20;25.30;49.30
71142;DHT22;58808;59.366;17.970;2023-07-29T13:10:46;25.20;47.20
71142;DHT22;58808;59.366;17.970;2023-07-29T13:13:12;25.00;47.60
71142;DHT22;58808;59.366;17.970;2023-07-29T13:15:37;24.90;46.90
71142;DHT22;58808;59.366;17.970;2023-07-29T13:18:03;24.90;47.70
71142;DHT22;58808;59.366;17.970;2023-07-29T13:20:29;24.90;49.20
71142;DHT22;58808;59.366;17.970;2023-07-29T13:22:55;24.90;50.40
71142;DHT22;58808;59.366;17.970;2023-07-29T13:25:21;24.90;50.30
71142;DHT22;58808;59.366;17.970;2023-07-29T13:27:47;24.80;50.40
71142;DHT22;58808;59.366;17.970;2023-07-29T13:30:12;24.90;51.90
71142;DHT22;58808;59.366;17.970;2023-07-29T13:32:38;25.10;49.20
71142;DHT22;58808;59.366;17.970;2023-07-29T13:35:04;25.10;48.30
71142;DHT22;58808;59.366;17.970;2023-07-29T13:37:30;25.10;47.40
71142;DHT22;58808;59.366;17.970;2023-07-29T13:39:55;25.10;48.40
71142;DHT22;58808;59.366;17.970;2023-07-29T13:42:21;25.30;48.60
71142;DHT22;58808;59.366;17.970;2023-07-29T13:44:47;25.50;48.40
71142;DHT22;58808;59.366;17.970;2023-07-29T13:47:13;25.50;48.90
71142;DHT22;58808;59.366;17.970;2023-07-29T13:49:38;25.60;49.10
71142;DHT22;58808;59.366;17.970;2023-07-29T13:52:04;25.60;49.60
71142;DHT22;58808;59.366;17.970;2023-07-29T13:54:30;25.60;49.40
71142;DHT22;58808;59.366;17.970;2023-07-29T13:56:56;25.50;49.30
71142;DHT22;58808;59.366;17.970;2023-07-29T13:59:21;25.40;49.80
71142;DHT22;58808;59.366;17.970;2023-07-29T14:01:47;25.40;48.90
71142;DHT22;58808;59.366;17.970;2023-07-29T14:04:13;25.30;48.80
71142;DHT22;58808;59.366;17.970;2023-07-29T14:06:38;25.40;48.70
71142;DHT22;58808;59.366;17.970;2023-07-29T14:09:04;25.50;48.90
71142;DHT22;58808;59.366;17.970;2023-07-29T14:11:30;25.60;48.80
71142;DHT22;58808;59.366;17.970;2023-07-29T14:13:56;25.90;47.90
71142;DHT22;58808;59.366;17.970;2023-07-29T14:16:21;25.90;47.70
71142;DHT22;58808;59.366;17.970;2023-07-29T14:18:47;26.10;47.50
71142;DHT22;58808;59.366;17.970;2023-07-29T14:21:13;26.00;47.00
71142;DHT22;58808;59.366;17.970;2023-07-29T14:23:38;26.00;47.80
71142;DHT22;58808;59.366;17.970;2023-07-29T14:26:04;26.30;47.10
71142;DHT22;58808;59.366;17.970;2023-07-29T14:28:30;26.50;46.50
71142;DHT22;58808;59.366;17.970;2023-07-29T14:30:56;26.70;45.90
71142;DHT22;58808;59.366;17.970;2023-07-29T14:33:21;26.70;45.30
71142;DHT22;58808;59.366;17.970;2023-07-29T14:35:47;26.60;44.40
71142;DHT22;58808;59.366;17.970;2023-07-29T14:38:13;26.30;44.70
71142;DHT22;58808;59.366;17.970;2023-07-29T14:40:39;26.20;45.30
71142;DHT22;58808;59.366;17.970;2023-07-29T14:43:04;26.10;45.40
71142;DHT22;58808;59.366;17.970;2023-07-29T14:45:30;25.80;46.40
71142;DHT22;58808;59.366;17.970;2023-07-29T14:47:56;25.60;46.60
71142;DHT22;58808;59.366;17.970;2023-07-29T14:50:21;25.50;46.60
71142;DHT22;58808;59.366;17.970;2023-07-29T14:52:47;25.50;47.10
71142;DHT22;58808;59.366;17.970;2023-07-29T14:55:13;25.50;45.80
71142;DHT22;58808;59.366;17.970;2023-07-29T14:57:38;25.40;45.60
71142;DHT22;58808;59.366;17.970;2023-07-29T15:00:06;25.30;45.80
71142;DHT22;58808;59.366;17.970;2023-07-29T15:02:33;25.20;46.40
71142;DHT22;58808;59.366;17.970;2023-07-29T15:04:58;25.10;47.10
71142;DHT22;58808;59.366;17.970;2023-07-29T15:07:24;25.00;46.90
71142;DHT22;58808;59.366;17.970;2023-07-29T15:09:49;24.90;46.50
71142;DHT22;58808;59.366;17.970;2023-07-29T15:12:15;24.90;48.50
71142;DHT22;58808;59.366;17.970;2023-07-29T15:14:41;24.90;47.30
71142;DHT22;58808;59.366;17.970;2023-07-29T15:17:07;25.00;47.30
71142;DHT22;58808;59.366;17.970;2023-07-29T15:19:33;24.90;47.60
71142;DHT22;58808;59.366;17.970;2023-07-29T15:21:58;24.80;48.30
71142;DHT22;58808;59.366;17.970;2023-07-29T15:24:24;24.80;47.10